createdAt,value
2023-03-13T00:01:56.254Z,21.27
2023-03-13T00:04:23.150Z,19.88
2023-03-13T00:06:49.754Z,10.15
2023-03-13T00:09:30.394Z,20.38
2023-03-13T00:11:57.152Z,15.30
2023-03-13T00:14:23.798Z,19.55
2023-03-13T00:16:50.460Z,14.18
2023-03-13T00:19:17.105Z,16.33
2023-03-13T00:21:43.656Z,17.73
2023-03-13T00:26:55.429Z,26.75
2023-03-13T00:29:22.127Z,19.48
2023-03-13T00:31:48.728Z,18.55
2023-03-13T00:34:15.426Z,12.88
2023-03-13T00:36:42.104Z,7.80
2023-03-13T00:41:50.925Z,20.20
2023-03-13T00:44:17.584Z,14.32
2023-03-13T00:46:44.277Z,14.20
2023-03-13T00:49:10.929Z,12.93
2023-03-13T00:51:37.548Z,16.77
2023-03-13T00:56:51.213Z,19.60
2023-03-13T00:59:17.773Z,13.02
2023-03-13T01:01:44.363Z,12.75
2023-03-13T01:04:12.418Z,13.13
2023-03-13T01:06:42.657Z,19.23
2023-03-13T01:09:14.056Z,27.38
2023-03-13T01:11:41.918Z,14.85
2023-03-13T01:14:12.540Z,17.90
2023-03-13T01:19:10.199Z,26.05
2023-03-13T01:21:39.172Z,21.05
2023-03-13T01:24:10.903Z,15.55
2023-03-13T01:26:37.456Z,19.48
2023-03-13T01:29:04.559Z,8.88
2023-03-13T01:31:33.338Z,14.02
2023-03-13T01:34:01.983Z,14.02
2023-03-13T01:36:28.842Z,6.63
2023-03-13T01:39:17.866Z,14.07
2023-03-13T01:41:44.432Z,9.05
2023-03-13T01:44:25.581Z,5.45
2023-03-13T01:46:52.555Z,15.57
2023-03-13T01:49:28.077Z,13.82
2023-03-13T01:52:00.132Z,11.32
2023-03-13T01:54:38.646Z,7.18
2023-03-13T01:57:09.204Z,2.25
2023-03-13T02:02:05.012Z,5.22
2023-03-13T02:04:41.593Z,8.57
2023-03-13T02:07:12.215Z,6.63
2023-03-13T02:12:15.027Z,4.60
2023-03-13T02:14:43.942Z,4.63
2023-03-13T02:17:11.045Z,11.05
2023-03-13T02:19:51.936Z,9.50
2023-03-13T02:22:24.501Z,4.28
2023-03-13T02:25:23.066Z,2.17
2023-03-13T02:27:58.869Z,4.43
2023-03-13T02:30:25.658Z,8.65
2023-03-13T02:32:56.308Z,5.68
2023-03-13T02:35:23.791Z,5.47
2023-03-13T02:37:53.330Z,3.72
2023-03-13T02:40:26.881Z,6.78
2023-03-13T02:42:54.986Z,2.92
2023-03-13T02:45:35.766Z,1.77
2023-03-13T02:48:02.331Z,3.65
2023-03-13T02:50:29.131Z,3.78
2023-03-13T02:52:59.355Z,5.78
2023-03-13T02:55:32.759Z,1.83
2023-03-13T02:57:59.382Z,4.30
2023-03-13T03:00:26.692Z,2.85
2023-03-13T03:02:54.180Z,2.08
2023-03-13T03:05:22.209Z,1.67
2023-03-13T03:07:50.151Z,1.90
2023-03-13T03:10:17.957Z,5.25
2023-03-13T03:12:44.607Z,2.35
2023-03-13T03:15:11.549Z,2.97
2023-03-13T03:17:39.839Z,3.13
2023-03-13T03:20:11.914Z,2.20
2023-03-13T03:22:40.662Z,1.80
2023-03-13T03:25:09.044Z,3.75
2023-03-13T03:27:36.400Z,0.63
2023-03-13T03:30:04.536Z,1.85
2023-03-13T03:32:54.969Z,3.10
2023-03-13T03:35:21.626Z,1.60
2023-03-13T03:37:48.193Z,1.80
2023-03-13T03:40:14.859Z,3.30
2023-03-13T03:42:41.476Z,2.38
2023-03-13T03:45:08.686Z,1.30
2023-03-13T03:47:40.581Z,5.78
2023-03-13T03:50:07.703Z,2.33
2023-03-13T03:52:34.332Z,1.13
2023-03-13T03:55:00.958Z,3.70
2023-03-13T03:57:27.590Z,0.80
2023-03-13T03:59:54.201Z,0.68
2023-03-13T04:02:20.851Z,0.57
2023-03-13T04:04:47.516Z,2.10
2023-03-13T04:07:14.093Z,0.77
2023-03-13T04:09:40.727Z,2.22
2023-03-13T04:12:07.799Z,0.82
2023-03-13T04:14:41.674Z,3.38
2023-03-13T04:17:08.277Z,1.02
2023-03-13T04:19:34.908Z,0.30
2023-03-13T04:22:01.493Z,0.47
2023-03-13T04:24:28.200Z,3.53
2023-03-13T04:26:54.817Z,0.77
2023-03-13T04:29:36.353Z,0.40
2023-03-13T04:32:03.319Z,0.32
2023-03-13T04:34:30.124Z,0.40
2023-03-13T04:36:56.764Z,0.52
2023-03-13T04:39:26.434Z,1.77
2023-03-13T04:41:53.632Z,0.30
2023-03-13T04:44:32.244Z,0.93
2023-03-13T04:46:58.839Z,1.85
2023-03-13T04:49:25.490Z,1.00
2023-03-13T04:51:52.095Z,1.42
2023-03-13T04:54:18.705Z,2.50
2023-03-13T04:56:45.335Z,0.57
2023-03-13T04:59:30.442Z,0.50
2023-03-13T05:01:57.000Z,0.73
2023-03-13T05:04:23.602Z,1.73
2023-03-13T05:06:50.161Z,0.40
2023-03-13T05:09:17.118Z,2.53
2023-03-13T05:11:43.679Z,1.00
2023-03-13T05:14:25.531Z,0.65
2023-03-13T05:16:52.112Z,0.30
2023-03-13T05:19:18.719Z,0.20
2023-03-13T05:21:45.323Z,0.20
2023-03-13T05:24:11.952Z,0.63
2023-03-13T05:26:38.585Z,0.47
2023-03-13T05:31:47.577Z,0.30
2023-03-13T05:34:14.178Z,0.40
2023-03-13T05:36:40.807Z,0.30
2023-03-13T05:39:07.411Z,0.30
2023-03-13T05:41:34.027Z,0.40
2023-03-13T05:44:03.595Z,2.72
2023-03-13T05:46:30.923Z,1.13
2023-03-13T05:48:57.539Z,0.28
2023-03-13T05:51:24.122Z,0.40
2023-03-13T05:53:50.743Z,0.20
2023-03-13T05:56:17.617Z,0.10
2023-03-13T05:58:44.205Z,0.20
2023-03-13T06:01:12.936Z,1.48
2023-03-13T06:03:39.713Z,0.43
2023-03-13T06:06:06.637Z,0.25
2023-03-13T06:08:33.277Z,2.72
2023-03-13T06:11:15.554Z,1.25
2023-03-13T06:13:42.155Z,1.83
2023-03-13T06:16:08.924Z,0.70
2023-03-13T06:18:35.807Z,0.20
2023-03-13T06:21:02.621Z,0.30
2023-03-13T06:23:29.730Z,0.38
2023-03-13T06:26:19.345Z,1.33
2023-03-13T06:28:45.921Z,0.93
2023-03-13T06:31:12.629Z,1.15
2023-03-13T06:33:39.262Z,0.88
2023-03-13T06:36:06.291Z,0.60
2023-03-13T06:38:33.276Z,1.40
2023-03-13T06:41:02.912Z,0.77
2023-03-13T06:43:29.588Z,0.60
2023-03-13T06:45:56.308Z,3.40
2023-03-13T06:48:26.166Z,0.50
2023-03-13T06:50:54.157Z,1.10
2023-03-13T06:53:21.088Z,1.10
2023-03-13T06:58:34.460Z,0.73
2023-03-13T07:01:07.432Z,1.38
2023-03-13T07:03:34.856Z,1.20
2023-03-13T07:06:01.542Z,1.45
2023-03-13T07:08:28.786Z,2.75
2023-03-13T07:11:05.161Z,4.22
2023-03-13T07:13:32.368Z,2.35
2023-03-13T07:16:04.400Z,2.22
2023-03-13T07:18:31.588Z,2.13
2023-03-13T07:20:59.818Z,3.13
2023-03-13T07:23:28.268Z,1.88
2023-03-13T07:26:00.050Z,3.35
2023-03-13T07:28:27.682Z,3.00
2023-03-13T07:30:54.432Z,4.85
2023-03-13T07:33:21.151Z,5.03
2023-03-13T07:35:49.929Z,3.67
2023-03-13T07:38:16.747Z,3.88
2023-03-13T07:43:20.208Z,3.50
2023-03-13T07:45:57.856Z,5.57
2023-03-13T07:48:27.960Z,2.70
2023-03-13T07:50:56.513Z,4.65
2023-03-13T07:53:23.839Z,2.78
2023-03-13T07:56:01.651Z,3.97
2023-03-13T07:58:31.791Z,4.35
2023-03-13T08:00:59.247Z,7.55
2023-03-13T08:03:26.326Z,5.75
2023-03-13T08:06:26.199Z,4.57
2023-03-13T08:08:53.702Z,4.18
2023-03-13T08:11:22.142Z,4.22
2023-03-13T08:13:51.625Z,4.28
2023-03-13T08:16:23.162Z,4.78
2023-03-13T08:18:52.162Z,3.58
2023-03-13T08:21:21.038Z,5.07
2023-03-13T08:23:47.952Z,3.95
2023-03-13T08:26:19.054Z,2.95
2023-03-13T08:28:48.477Z,3.20
2023-03-13T08:31:17.736Z,3.20
2023-03-13T08:33:45.888Z,4.75
2023-03-13T08:36:15.630Z,6.25
2023-03-13T08:38:45.878Z,6.65
2023-03-13T08:41:14.648Z,2.45
2023-03-13T08:46:12.096Z,5.35
2023-03-13T08:48:38.982Z,6.63
2023-03-13T08:51:10.886Z,4.00
2023-03-13T08:56:16.180Z,3.63
2023-03-13T08:58:43.234Z,7.45
2023-03-13T09:01:12.092Z,5.45
2023-03-13T09:03:39.146Z,6.20
2023-03-13T09:06:06.605Z,5.72
2023-03-13T09:08:33.474Z,3.47
2023-03-13T09:11:05.337Z,6.18
2023-03-13T09:13:33.858Z,5.28
2023-03-13T09:16:03.250Z,2.28
2023-03-13T09:18:30.186Z,4.68
2023-03-13T09:20:57.832Z,3.17
2023-03-13T09:23:25.152Z,7.28
2023-03-13T09:25:56.376Z,1.98
2023-03-13T09:28:31.407Z,2.33
2023-03-13T09:36:35.599Z,4.07
2023-03-13T09:39:02.241Z,3.28
2023-03-13T09:42:03.297Z,2.10
2023-03-13T09:44:37.192Z,3.03
2023-03-13T09:47:17.529Z,1.65
2023-03-13T09:49:48.633Z,2.30
2023-03-13T09:52:25.910Z,2.33
2023-03-13T09:54:59.203Z,3.00
2023-03-13T09:57:48.611Z,3.50
2023-03-13T10:00:24.047Z,1.70
2023-03-13T10:03:07.888Z,1.25
2023-03-13T10:05:34.504Z,2.22
2023-03-13T10:08:27.667Z,2.92
2023-03-13T10:10:54.260Z,3.83
2023-03-13T10:13:34.723Z,3.97
2023-03-13T10:18:28.588Z,3.38
2023-03-13T10:21:00.670Z,4.63
2023-03-13T10:23:35.586Z,3.42
2023-03-13T10:26:02.226Z,2.28
2023-03-13T10:28:28.855Z,3.15
2023-03-13T10:33:48.989Z,1.95
2023-03-13T10:36:16.084Z,4.40
2023-03-13T10:38:51.686Z,1.83
2023-03-13T10:41:29.270Z,3.33
2023-03-13T10:44:02.192Z,1.98
2023-03-13T10:46:32.096Z,3.38
2023-03-13T10:51:53.345Z,3.20
2023-03-13T10:54:39.682Z,2.22
2023-03-13T10:57:18.678Z,1.58
2023-03-13T10:59:49.763Z,2.90
2023-03-13T11:02:38.393Z,2.45
2023-03-13T11:05:23.549Z,1.05
2023-03-13T11:07:51.032Z,2.42
2023-03-13T11:10:24.814Z,1.95
2023-03-13T11:15:42.351Z,2.00
2023-03-13T11:18:26.515Z,0.98
2023-03-13T11:20:53.831Z,2.45
2023-03-13T11:23:28.842Z,2.65
2023-03-13T11:26:19.604Z,4.78
2023-03-13T11:28:50.980Z,2.13
2023-03-13T11:31:37.891Z,2.13
2023-03-13T11:34:05.289Z,2.00
2023-03-13T11:36:36.801Z,1.42
2023-03-13T11:39:31.934Z,0.50
2023-03-13T11:42:13.472Z,0.52
2023-03-13T11:44:59.198Z,3.03
2023-03-13T11:47:50.188Z,1.40
2023-03-13T11:50:35.616Z,0.65
2023-03-13T11:53:14.346Z,1.95
2023-03-13T11:56:13.734Z,4.65
2023-03-13T11:59:21.468Z,2.20
2023-03-13T12:02:14.654Z,0.82
2023-03-13T12:04:45.824Z,5.82
2023-03-13T12:07:26.309Z,0.40
2023-03-13T12:12:54.236Z,0.40
2023-03-13T12:15:27.136Z,1.33
2023-03-13T12:18:02.145Z,1.13
2023-03-13T12:20:58.685Z,0.93
2023-03-13T12:23:30.905Z,0.85
2023-03-13T12:26:06.513Z,1.17
2023-03-13T12:28:51.907Z,0.45
2023-03-13T12:31:42.575Z,0.82
2023-03-13T12:34:33.737Z,1.05
2023-03-13T12:37:11.001Z,1.27
2023-03-13T12:39:41.113Z,1.17
2023-03-13T12:42:21.868Z,1.13
2023-03-13T12:44:48.913Z,1.05
2023-03-13T12:47:15.901Z,0.93
2023-03-13T12:49:45.871Z,1.85
2023-03-13T12:52:15.256Z,0.65
2023-03-13T13:00:22.646Z,1.52
2023-03-13T13:03:03.083Z,1.30
2023-03-13T13:07:56.592Z,1.58
2023-03-13T13:10:27.104Z,1.30
2023-03-13T13:13:15.574Z,1.58
2023-03-13T13:15:43.766Z,0.77
2023-03-13T13:18:15.129Z,2.97
2023-03-13T13:20:45.053Z,1.48
2023-03-13T13:23:22.511Z,2.20
2023-03-13T13:25:50.068Z,2.20
2023-03-13T13:28:21.764Z,0.40
2023-03-13T13:30:50.013Z,0.73
2023-03-13T13:41:39.306Z,0.75
2023-03-13T13:44:27.432Z,2.00
2023-03-13T13:46:56.270Z,1.10
2023-03-13T13:49:29.266Z,0.50
2023-03-13T13:52:01.691Z,2.17
2023-03-13T13:57:27.997Z,1.63
2023-03-13T14:00:36.542Z,2.65
2023-03-13T14:03:03.284Z,1.45
2023-03-13T14:05:31.607Z,0.45
2023-03-13T14:08:39.128Z,0.40
2023-03-13T14:11:14.771Z,1.02
2023-03-13T14:13:42.158Z,0.32
2023-03-13T14:16:24.370Z,0.47
2023-03-13T14:18:52.166Z,1.55
2023-03-13T14:29:39.435Z,0.65
2023-03-13T14:32:07.194Z,3.05
2023-03-13T14:34:34.055Z,2.15
2023-03-13T14:37:17.261Z,3.25
2023-03-13T14:39:45.984Z,0.47
2023-03-13T14:44:59.622Z,0.63
2023-03-13T14:47:30.637Z,0.95
2023-03-13T14:50:09.203Z,1.65
2023-03-13T14:52:37.007Z,2.47
2023-03-13T14:55:07.818Z,0.45
2023-03-13T14:57:35.386Z,0.85
2023-03-13T15:05:31.165Z,0.30
2023-03-13T15:07:57.970Z,0.82
2023-03-13T15:10:36.903Z,0.50
2023-03-13T15:13:33.775Z,2.40
2023-03-13T15:16:01.745Z,1.00
2023-03-13T15:18:34.091Z,0.75
2023-03-13T15:21:17.234Z,3.40
2023-03-13T15:26:49.147Z,1.58
2023-03-13T15:29:18.292Z,1.45
2023-03-13T15:31:45.704Z,3.08
2023-03-13T15:34:13.579Z,0.98
2023-03-13T15:36:41.624Z,1.58
2023-03-13T15:41:39.066Z,2.97
2023-03-13T15:44:06.185Z,1.67
2023-03-13T15:46:33.252Z,8.32
2023-03-13T15:49:00.305Z,1.85
2023-03-13T15:51:27.774Z,1.27
2023-03-13T15:54:04.566Z,1.92
2023-03-13T15:56:35.050Z,3.00
2023-03-13T15:59:02.558Z,4.75
2023-03-13T16:01:29.656Z,3.67
2023-03-13T16:03:58.113Z,2.92
2023-03-13T16:06:31.024Z,1.65
2023-03-13T16:11:38.977Z,0.77
2023-03-13T16:14:06.063Z,1.88
2023-03-13T16:16:37.293Z,1.25
2023-03-13T16:19:04.607Z,1.92
2023-03-13T16:21:34.400Z,3.28
2023-03-13T16:26:32.070Z,3.17
2023-03-13T16:28:58.914Z,1.00
2023-03-13T16:31:28.632Z,4.18
2023-03-13T16:33:56.291Z,2.92
2023-03-13T16:36:30.050Z,2.33
2023-03-13T16:39:00.873Z,2.33
2023-03-13T16:41:28.268Z,2.33
2023-03-13T16:43:55.751Z,3.55
2023-03-13T16:46:30.123Z,1.50
2023-03-13T16:48:58.413Z,2.85
2023-03-13T16:51:26.324Z,4.00
2023-03-13T16:53:54.422Z,2.92
2023-03-13T16:56:46.153Z,2.20
2023-03-13T16:59:14.593Z,2.78
2023-03-13T17:01:41.278Z,3.70
2023-03-13T17:04:08.053Z,1.17
2023-03-13T17:06:38.707Z,3.30
2023-03-13T17:09:18.885Z,8.40
2023-03-13T17:11:45.509Z,2.28
2023-03-13T17:14:13.333Z,2.25
2023-03-13T17:16:42.974Z,3.90
2023-03-13T17:19:16.892Z,3.38
2023-03-13T17:21:43.695Z,1.15
2023-03-13T17:24:11.805Z,1.75
2023-03-13T17:26:43.693Z,4.00
2023-03-13T17:29:16.199Z,8.73
2023-03-13T17:31:45.425Z,4.20
2023-03-13T17:34:13.029Z,3.53
2023-03-13T17:36:39.860Z,3.08
2023-03-13T17:39:08.830Z,4.20
2023-03-13T17:44:09.982Z,1.65
2023-03-13T17:46:42.467Z,2.95
2023-03-13T17:49:12.255Z,3.15
2023-03-13T17:51:41.367Z,1.85
2023-03-13T17:54:08.974Z,2.78
2023-03-13T18:02:15.784Z,7.88
2023-03-13T18:04:42.929Z,1.15
2023-03-13T18:07:22.992Z,2.92
2023-03-13T18:09:50.645Z,3.38
2023-03-13T18:12:17.603Z,2.92
2023-03-13T18:14:44.696Z,2.88
2023-03-13T18:23:06.115Z,3.50
2023-03-13T18:25:32.745Z,2.05
2023-03-13T18:27:59.459Z,1.15
2023-03-13T18:30:26.408Z,1.27
2023-03-13T18:32:53.215Z,2.20
2023-03-13T18:43:43.481Z,1.10
2023-03-13T18:46:18.342Z,1.05
2023-03-13T18:48:45.153Z,2.50
2023-03-13T18:51:18.188Z,2.30
2023-03-13T18:53:45.848Z,2.17
2023-03-13T19:04:29.330Z,1.52
2023-03-13T19:06:55.971Z,4.07
2023-03-13T19:12:11.365Z,1.67
2023-03-13T19:14:38.040Z,4.88
2023-03-13T19:19:48.647Z,3.15
2023-03-13T19:22:16.702Z,1.42
2023-03-13T19:24:43.404Z,1.38
2023-03-13T19:27:14.274Z,3.33
2023-03-13T19:29:40.892Z,2.28
2023-03-13T19:34:50.630Z,4.70
2023-03-13T19:37:18.923Z,5.63
2023-03-13T19:39:46.131Z,2.10
2023-03-13T19:42:12.738Z,2.33
2023-03-13T19:44:40.402Z,2.90
2023-03-13T19:47:17.931Z,2.45
2023-03-13T19:49:45.495Z,5.07
2023-03-13T19:52:12.293Z,4.82
2023-03-13T19:54:38.915Z,2.63
2023-03-13T19:57:06.910Z,3.30
2023-03-13T19:59:35.252Z,3.67
2023-03-13T20:04:45.802Z,2.33
2023-03-13T20:07:12.574Z,2.65
2023-03-13T20:09:39.354Z,2.97
2023-03-13T20:12:06.131Z,5.47
2023-03-13T20:14:32.732Z,3.45
2023-03-13T20:17:08.980Z,4.53
2023-03-13T20:19:36.166Z,3.33
2023-03-13T20:22:06.119Z,2.90
2023-03-13T20:24:36.027Z,3.58
2023-03-13T20:27:06.188Z,3.17
2023-03-13T20:29:33.815Z,3.30
2023-03-13T20:34:33.625Z,6.13
2023-03-13T20:37:00.270Z,4.40
2023-03-13T20:39:28.011Z,2.38
2023-03-13T20:41:56.118Z,4.55
2023-03-13T20:44:23.307Z,3.28
2023-03-13T20:49:29.556Z,2.37
2023-03-13T20:51:56.192Z,9.07
2023-03-13T20:54:22.881Z,3.65
2023-03-13T20:56:49.567Z,3.60
2023-03-13T20:59:16.188Z,2.75
2023-03-13T21:04:26.157Z,3.70
2023-03-13T21:06:52.804Z,2.97
2023-03-13T21:09:19.551Z,6.78
2023-03-13T21:11:46.185Z,2.25
2023-03-13T21:14:12.849Z,3.78
2023-03-13T21:22:06.910Z,2.70
2023-03-13T21:24:33.588Z,5.03
2023-03-13T21:27:00.312Z,2.25
2023-03-13T21:29:27.105Z,5.18
2023-03-13T21:31:56.888Z,3.22
2023-03-13T21:34:23.539Z,5.40
2023-03-13T21:36:50.186Z,3.30
2023-03-13T21:39:16.755Z,5.68
2023-03-13T21:41:43.395Z,2.53
2023-03-13T21:44:10.714Z,3.67
2023-03-13T21:49:21.865Z,2.42
2023-03-13T21:51:48.574Z,5.38
2023-03-13T21:54:15.437Z,5.15
2023-03-13T21:56:42.253Z,1.88
2023-03-13T21:59:08.949Z,2.17
2023-03-13T22:01:48.623Z,3.15
2023-03-13T22:04:18.286Z,11.93
2023-03-13T22:06:44.916Z,2.43
2023-03-13T22:09:11.535Z,2.88
2023-03-13T22:11:38.212Z,4.65
2023-03-13T22:14:05.992Z,3.65
2023-03-13T22:19:11.581Z,2.58
2023-03-13T22:21:38.206Z,7.10
2023-03-13T22:24:05.102Z,3.10
2023-03-13T22:26:31.667Z,2.35
2023-03-13T22:28:58.333Z,1.58
2023-03-13T22:36:53.781Z,3.80
2023-03-13T22:39:20.370Z,4.25
2023-03-13T22:41:47.776Z,8.55
2023-03-13T22:44:16.732Z,6.53
2023-03-13T22:46:43.375Z,3.38
2023-03-13T22:49:10.121Z,5.43
2023-03-13T22:51:36.719Z,3.65
2023-03-13T22:54:04.581Z,2.13
2023-03-13T22:56:31.247Z,6.03
2023-03-13T22:58:57.880Z,1.35
2023-03-13T23:04:00.732Z,4.78
2023-03-13T23:06:27.613Z,9.32
2023-03-13T23:08:54.379Z,2.55
2023-03-13T23:11:21.077Z,3.53
2023-03-13T23:13:47.843Z,6.10
2023-03-13T23:24:23.059Z,3.45
2023-03-13T23:26:49.696Z,3.28
2023-03-13T23:29:16.849Z,3.58
2023-03-13T23:31:43.458Z,4.93
2023-03-13T23:37:03.876Z,1.42
2023-03-13T23:39:30.560Z,2.67
2023-03-13T23:42:07.749Z,3.58
2023-03-13T23:44:34.351Z,7.47
2023-03-13T23:47:01.215Z,6.40
2023-03-13T23:49:27.885Z,5.53
2023-03-13T23:51:54.991Z,3.92
2023-03-13T23:54:23.052Z,5.72
2023-03-13T23:56:49.678Z,4.60
2023-03-13T23:59:16.417Z,7.60
